KATL/ATL METAR and TAF weather

Enter ICAO airport designator
Station Type Date Time Source
KATL METAR 2021/04/14 19:52 UTC NOAA

KATL 141952Z 23011G23KT 10SM SCT075 BKN090 BKN140 OVC200 26/08 A3000 RMK AO2 SLP152 ACC ALQDS T02560078


Station Type Date Time Source
KATL Decoded METAR 2021/04/14 19:52 UTC NOAA

HARTSFIELD-JACKSON ATLANTA, GA, United States (KATL) 33-39N 84-26W
Apr 14, 2021 - 03:52 PM EDT / 2021.04.14 1952 UTC
Wind: from the SW (230 degrees) at 13 MPH (11 KT) gusting to 26 MPH (23 KT):0
Visibility: 10 mile(s):0
Sky conditions: overcast
Temperature: 78.1 F (25.6 C)
Dew Point: 46.0 F (7.8 C)
Relative Humidity: 32%
Pressure (altimeter): 30 in. Hg (1015 hPa)
ob: KATL 141952Z 23011G23KT 10SM SCT075 BKN090 BKN140 OVC200 26/08 A3000 RMK AO2 SLP152 ACC ALQDS T02560078
cycle: 20

Station Type Date Time Source
KATL TAF 2021/04/14 20:54 UTC NOAA

TAF
AMD KATL 141954Z 1420/1524 22010G18KT P6SM VCSH BKN050 BKN080
TEMPO 1421/1501 4SM -SHRA BKN025 BKN050
FM150200 25008KT P6SM VCSH BKN025 OVC040
FM150700 26008KT P6SM VCSH BKN008 OVC012
FM151000 31008KT P6SM BKN007
FM151400 33012KT P6SM BKN025
FM151700 32012G22KT P6SM SCT045

Example: see airport list